createdAt,value
2019-03-18T00:00:03.524Z,70.49
2019-03-18T00:02:32.687Z,70.59
2019-03-18T00:05:01.809Z,70.58
2019-03-18T00:07:30.927Z,70.74
2019-03-18T00:10:00.339Z,70.28
2019-03-18T00:12:29.449Z,70.64
2019-03-18T00:15:01.628Z,70.66
2019-03-18T00:17:29.503Z,70.52
2019-03-18T00:19:58.697Z,70.24
2019-03-18T00:22:27.823Z,70.61
2019-03-18T00:24:56.990Z,70.68
2019-03-18T00:27:26.073Z,70.61
2019-03-18T00:29:55.319Z,70.47
2019-03-18T00:32:24.455Z,70.74
2019-03-18T00:34:53.575Z,70.58
2019-03-18T00:37:22.749Z,70.59
2019-03-18T00:39:51.893Z,70.78
2019-03-18T00:42:21.007Z,70.83
2019-03-18T00:44:50.135Z,71.11
2019-03-18T00:47:19.250Z,71.13
2019-03-18T00:49:48.451Z,71.03
2019-03-18T00:52:17.674Z,71.28
2019-03-18T00:54:46.823Z,70.63
2019-03-18T00:57:15.946Z,70.98
2019-03-18T00:59:45.080Z,71.05
2019-03-18T01:02:14.229Z,70.92
2019-03-18T01:04:43.378Z,70.93
2019-03-18T01:07:12.603Z,70.95
2019-03-18T01:09:42.002Z,70.90
2019-03-18T01:12:11.082Z,70.45
2019-03-18T01:14:40.394Z,70.60
2019-03-18T01:17:09.514Z,70.59
2019-03-18T01:19:38.690Z,70.90
2019-03-18T01:22:07.770Z,70.66
2019-03-18T01:24:36.985Z,70.72
2019-03-18T01:27:06.107Z,70.66
2019-03-18T01:29:35.237Z,70.62
2019-03-18T01:32:04.365Z,70.75
2019-03-18T01:34:33.475Z,70.81
2019-03-18T01:37:02.621Z,70.74
2019-03-18T01:39:31.739Z,70.57
2019-03-18T01:42:00.903Z,69.86
2019-03-18T01:44:30.024Z,70.05
2019-03-18T01:46:59.158Z,70.20
2019-03-18T01:49:28.320Z,70.19
2019-03-18T01:51:57.489Z,70.11
2019-03-18T01:54:26.635Z,70.14
2019-03-18T01:56:55.741Z,70.31
2019-03-18T01:59:24.934Z,70.33
2019-03-18T02:01:54.093Z,70.32
2019-03-18T02:04:23.191Z,70.35
2019-03-18T02:06:52.425Z,70.53
2019-03-18T02:09:21.556Z,70.73
2019-03-18T02:11:50.665Z,70.71
2019-03-18T02:14:19.823Z,70.68
2019-03-18T02:16:49.016Z,70.59
2019-03-18T02:19:18.210Z,70.34
2019-03-18T02:21:47.491Z,70.29
2019-03-18T02:24:16.626Z,70.37
2019-03-18T02:26:45.704Z,70.56
2019-03-18T02:29:14.838Z,70.59
2019-03-18T02:31:43.951Z,70.65
2019-03-18T02:34:13.169Z,70.55
2019-03-18T02:36:42.293Z,70.44
2019-03-18T02:39:11.431Z,70.51
2019-03-18T02:41:40.574Z,70.42
2019-03-18T02:44:09.695Z,70.57
2019-03-18T02:46:38.813Z,70.97
2019-03-18T02:49:07.970Z,70.69
2019-03-18T02:51:37.079Z,70.76
2019-03-18T02:54:06.213Z,70.60
2019-03-18T02:56:35.335Z,70.78
2019-03-18T02:59:04.431Z,70.86
2019-03-18T03:01:33.566Z,70.93
2019-03-18T03:04:02.694Z,71.28
2019-03-18T03:06:31.829Z,71.12
2019-03-18T03:09:01.131Z,70.99
2019-03-18T03:11:33.956Z,71.15
2019-03-18T03:14:01.201Z,71.50
2019-03-18T03:16:30.343Z,71.46
2019-03-18T03:18:59.457Z,71.27
2019-03-18T03:21:28.631Z,71.53
2019-03-18T03:23:57.834Z,71.74
2019-03-18T03:26:26.960Z,72.01
2019-03-18T03:28:58.546Z,71.69
2019-03-18T03:31:27.329Z,72.56
2019-03-18T03:33:56.474Z,72.31
2019-03-18T03:36:25.609Z,72.61
2019-03-18T03:38:54.718Z,72.70
2019-03-18T03:41:23.928Z,72.80
2019-03-18T03:43:53.076Z,72.59
2019-03-18T03:46:22.187Z,72.55
2019-03-18T03:48:51.290Z,72.62
2019-03-18T03:51:20.585Z,73.09
2019-03-18T03:53:49.707Z,73.48
2019-03-18T03:56:18.810Z,73.45
2019-03-18T03:58:47.911Z,73.49
2019-03-18T04:01:17.153Z,72.73
2019-03-18T04:03:46.679Z,73.07
2019-03-18T04:06:15.948Z,73.41
2019-03-18T04:08:45.157Z,73.67
2019-03-18T04:11:14.451Z,73.73
2019-03-18T04:13:43.678Z,74.05
2019-03-18T04:16:12.816Z,74.15
2019-03-18T04:18:41.981Z,74.04
2019-03-18T04:21:11.084Z,74.01
2019-03-18T04:23:40.239Z,74.42
2019-03-18T04:26:09.360Z,74.11
2019-03-18T04:28:38.468Z,74.43
2019-03-18T04:31:07.613Z,74.07
2019-03-18T04:33:39.189Z,74.83
2019-03-18T04:36:07.693Z,75.08
2019-03-18T04:38:36.887Z,75.20
2019-03-18T04:41:06.018Z,75.84
2019-03-18T04:43:35.163Z,75.66
2019-03-18T04:46:04.275Z,75.73
2019-03-18T04:48:33.430Z,75.56
2019-03-18T04:51:02.524Z,75.76
2019-03-18T04:53:31.634Z,75.83
2019-03-18T04:56:00.770Z,75.94
2019-03-18T04:58:29.918Z,76.26
2019-03-18T05:00:59.089Z,76.66
2019-03-18T05:03:28.232Z,76.44
2019-03-18T05:05:57.408Z,76.66
2019-03-18T05:08:26.555Z,76.57
2019-03-18T05:10:55.688Z,76.56
2019-03-18T05:13:26.570Z,76.02
2019-03-18T05:15:55.830Z,76.28
2019-03-18T05:18:24.963Z,76.27
2019-03-18T05:20:54.099Z,76.79
2019-03-18T05:23:23.229Z,76.56
2019-03-18T05:25:52.341Z,76.63
2019-03-18T05:28:21.544Z,76.14
2019-03-18T05:30:50.641Z,76.43
2019-03-18T05:33:19.777Z,76.62
2019-03-18T05:35:48.897Z,76.23
2019-03-18T05:38:18.021Z,75.52
2019-03-18T05:40:47.133Z,75.56
2019-03-18T05:43:16.270Z,75.71
2019-03-18T05:45:45.371Z,75.98
2019-03-18T05:48:14.604Z,75.71
2019-03-18T05:50:43.713Z,76.46
2019-03-18T05:53:12.930Z,75.73
2019-03-18T05:55:42.054Z,75.30
2019-03-18T05:58:11.207Z,75.39
2019-03-18T06:00:40.317Z,75.89
2019-03-18T06:03:09.443Z,76.09
2019-03-18T06:05:38.562Z,75.90
2019-03-18T06:08:07.786Z,75.61
2019-03-18T06:10:36.902Z,75.49
2019-03-18T06:13:06.026Z,75.70
2019-03-18T06:15:35.160Z,75.66
2019-03-18T06:18:04.282Z,76.13
2019-03-18T06:20:33.435Z,76.05
2019-03-18T06:23:02.590Z,75.88
2019-03-18T06:25:31.745Z,75.13
2019-03-18T06:28:01.059Z,75.90
2019-03-18T06:30:30.559Z,75.49
2019-03-18T06:32:59.716Z,75.47
2019-03-18T06:35:28.839Z,74.96
2019-03-18T06:37:58.011Z,75.22
2019-03-18T06:40:27.135Z,74.94
2019-03-18T06:42:56.285Z,74.64
2019-03-18T06:45:25.397Z,74.78
2019-03-18T06:48:04.346Z,74.41
2019-03-18T06:50:25.348Z,74.64
2019-03-18T06:52:54.529Z,74.82
2019-03-18T06:55:23.684Z,75.18
2019-03-18T06:57:52.810Z,74.23
2019-03-18T07:00:22.222Z,74.21
2019-03-18T07:02:51.338Z,74.54
2019-03-18T07:05:20.456Z,74.30
2019-03-18T07:07:49.636Z,73.41
2019-03-18T07:10:18.750Z,72.93
2019-03-18T07:12:47.867Z,72.51
2019-03-18T07:15:17.026Z,72.74
2019-03-18T07:17:46.386Z,72.65
2019-03-18T07:20:15.672Z,72.47
2019-03-18T07:22:44.864Z,72.30
2019-03-18T07:25:14.016Z,71.45
2019-03-18T07:27:43.137Z,71.64
2019-03-18T07:30:12.492Z,71.68
2019-03-18T07:32:41.632Z,71.84
2019-03-18T07:35:10.758Z,72.12
2019-03-18T07:37:39.903Z,71.55
2019-03-18T07:40:11.352Z,72.25
2019-03-18T07:42:40.580Z,72.87
2019-03-18T07:45:10.183Z,72.28
2019-03-18T07:47:39.307Z,72.88
2019-03-18T07:50:10.401Z,72.91
2019-03-18T07:52:39.636Z,72.67
2019-03-18T07:55:08.851Z,72.41
2019-03-18T07:57:37.991Z,72.43
2019-03-18T08:00:07.270Z,72.18
2019-03-18T08:02:36.426Z,71.57
2019-03-18T08:05:06.955Z,71.21
2019-03-18T08:07:36.201Z,70.55
2019-03-18T08:10:05.958Z,70.49
2019-03-18T08:12:35.104Z,71.15
2019-03-18T08:15:04.253Z,71.38
2019-03-18T08:17:33.353Z,71.36
2019-03-18T08:20:03.508Z,71.29
2019-03-18T08:22:32.912Z,71.20
2019-03-18T08:25:02.040Z,69.84
2019-03-18T08:27:31.154Z,68.80
2019-03-18T08:30:00.503Z,68.56
2019-03-18T08:32:29.617Z,68.66
2019-03-18T08:34:58.754Z,69.72
2019-03-18T08:37:27.886Z,68.74
2019-03-18T08:39:57.052Z,63.79
2019-03-18T08:42:26.229Z,62.24
2019-03-18T08:44:55.324Z,60.98
2019-03-18T08:47:24.446Z,61.68
2019-03-18T08:49:53.601Z,60.49
2019-03-18T08:52:22.994Z,61.65
2019-03-18T08:54:52.141Z,60.31
2019-03-18T08:57:21.257Z,61.81
2019-03-18T08:59:50.366Z,62.27
2019-03-18T09:02:19.525Z,62.96
2019-03-18T09:04:48.706Z,63.61
2019-03-18T09:07:17.961Z,62.94
2019-03-18T09:09:47.131Z,63.57
2019-03-18T09:12:16.265Z,64.05
2019-03-18T09:14:45.555Z,63.72
2019-03-18T09:17:14.715Z,63.56
2019-03-18T09:19:43.875Z,63.10
2019-03-18T09:22:13.119Z,63.03
2019-03-18T09:24:42.253Z,61.23
2019-03-18T09:27:11.377Z,61.19
2019-03-18T09:29:40.513Z,61.55
2019-03-18T09:32:09.641Z,61.83
2019-03-18T09:34:38.765Z,61.56
2019-03-18T09:37:08.191Z,59.88
2019-03-18T09:39:37.409Z,58.77
2019-03-18T09:42:06.515Z,58.12
2019-03-18T09:44:35.685Z,58.51
2019-03-18T09:47:04.835Z,59.11
2019-03-18T09:49:33.950Z,59.63
2019-03-18T09:52:03.088Z,61.09
2019-03-18T09:54:32.251Z,61.12
2019-03-18T09:57:01.406Z,61.82
2019-03-18T09:59:30.666Z,61.89
2019-03-18T10:01:59.843Z,61.98
2019-03-18T10:04:28.970Z,61.99
2019-03-18T10:06:58.136Z,61.92
2019-03-18T10:09:27.264Z,62.24
2019-03-18T10:11:56.384Z,62.18
2019-03-18T10:14:25.541Z,61.77
2019-03-18T10:16:54.639Z,59.85
2019-03-18T10:19:33.065Z,58.39
2019-03-18T10:21:54.902Z,56.86
2019-03-18T10:24:24.077Z,54.65
2019-03-18T10:26:53.208Z,53.63
2019-03-18T10:29:22.482Z,51.85
2019-03-18T10:31:51.657Z,50.89
2019-03-18T10:34:20.901Z,49.29
2019-03-18T10:36:50.053Z,49.73
2019-03-18T10:39:19.204Z,49.86
2019-03-18T10:41:48.343Z,50.35
2019-03-18T10:44:17.857Z,49.32
2019-03-18T10:46:47.045Z,48.46
2019-03-18T10:49:16.161Z,49.22
2019-03-18T10:51:48.068Z,48.66
2019-03-18T10:54:16.194Z,49.62
2019-03-18T10:56:45.318Z,48.81
2019-03-18T10:59:14.461Z,47.20
2019-03-18T11:01:43.670Z,46.89
2019-03-18T11:04:13.056Z,45.88
2019-03-18T11:06:42.220Z,49.13
2019-03-18T11:09:11.338Z,49.67
2019-03-18T11:11:40.491Z,49.79
2019-03-18T11:14:09.770Z,48.66
2019-03-18T11:16:39.000Z,48.52
2019-03-18T11:19:08.166Z,49.01
2019-03-18T11:21:37.288Z,46.84
2019-03-18T11:24:06.444Z,47.19
2019-03-18T11:26:35.546Z,47.04
2019-03-18T11:29:05.984Z,46.40
2019-03-18T11:31:35.697Z,46.15
2019-03-18T11:34:05.098Z,45.97
2019-03-18T11:36:34.220Z,47.13
2019-03-18T11:39:03.447Z,47.13
2019-03-18T11:41:32.612Z,47.02
2019-03-18T11:44:01.803Z,46.93
2019-03-18T11:46:30.937Z,47.76
2019-03-18T11:49:01.468Z,46.75
2019-03-18T11:51:30.595Z,46.14
2019-03-18T11:53:59.721Z,47.43
2019-03-18T11:56:28.965Z,48.04
2019-03-18T11:58:58.145Z,46.61
2019-03-18T12:01:27.322Z,46.60
2019-03-18T12:03:56.498Z,48.49
2019-03-18T12:06:25.640Z,48.81
2019-03-18T12:08:54.776Z,49.26
2019-03-18T12:11:23.906Z,49.94
2019-03-18T12:13:53.032Z,49.63
2019-03-18T12:16:22.161Z,51.23
2019-03-18T12:18:51.346Z,51.75
2019-03-18T12:21:20.446Z,52.81
2019-03-18T12:23:49.550Z,53.45
2019-03-18T12:26:18.673Z,54.60
2019-03-18T12:28:58.172Z,55.30
2019-03-18T12:31:27.367Z,55.75
2019-03-18T12:33:57.538Z,56.61
2019-03-18T12:36:26.819Z,56.73
2019-03-18T12:38:55.956Z,56.85
2019-03-18T12:41:25.095Z,57.03
2019-03-18T12:43:54.585Z,56.24
2019-03-18T12:46:23.713Z,55.84
2019-03-18T12:48:52.833Z,54.97
2019-03-18T12:51:22.023Z,55.73
2019-03-18T12:53:51.193Z,55.44
2019-03-18T12:56:20.323Z,55.65
2019-03-18T12:58:49.503Z,53.67
2019-03-18T13:01:18.637Z,54.97
2019-03-18T13:03:47.757Z,55.15
2019-03-18T13:06:16.894Z,55.38
2019-03-18T13:08:46.027Z,54.79
2019-03-18T13:11:15.238Z,54.63
2019-03-18T13:13:44.493Z,54.00
2019-03-18T13:16:13.657Z,52.32
2019-03-18T13:18:43.017Z,53.56
2019-03-18T13:21:12.205Z,53.00
2019-03-18T13:23:41.326Z,53.50
2019-03-18T13:26:10.463Z,52.88
2019-03-18T13:28:39.674Z,52.84
2019-03-18T13:31:08.934Z,52.99
2019-03-18T13:33:38.075Z,53.27
2019-03-18T13:36:07.670Z,52.56
2019-03-18T13:38:36.796Z,51.61
2019-03-18T13:41:05.992Z,52.04
2019-03-18T13:43:35.112Z,50.58
2019-03-18T13:46:04.247Z,51.88
2019-03-18T13:48:33.382Z,51.60
2019-03-18T13:51:02.505Z,51.27
2019-03-18T13:53:31.662Z,51.45
2019-03-18T13:56:00.792Z,50.96
2019-03-18T13:58:29.922Z,51.22
2019-03-18T14:00:59.100Z,50.84
2019-03-18T14:03:28.295Z,50.66
2019-03-18T14:05:57.444Z,50.29
2019-03-18T14:08:26.582Z,50.42
2019-03-18T14:10:55.727Z,52.00
2019-03-18T14:13:24.861Z,53.55
2019-03-18T14:15:54.018Z,54.47
2019-03-18T14:18:23.120Z,54.77
2019-03-18T14:20:52.300Z,55.02
2019-03-18T14:23:21.391Z,55.37
2019-03-18T14:25:50.509Z,56.29
2019-03-18T14:28:19.648Z,56.30
2019-03-18T14:30:48.846Z,56.61
2019-03-18T14:33:18.003Z,55.46
2019-03-18T14:35:47.165Z,55.40
2019-03-18T14:38:16.391Z,54.88
2019-03-18T14:40:45.559Z,54.98
2019-03-18T14:43:14.670Z,54.88
2019-03-18T14:45:43.831Z,55.14
2019-03-18T14:48:12.960Z,53.91
2019-03-18T14:50:42.122Z,54.37
2019-03-18T14:53:11.240Z,53.01
2019-03-18T14:55:40.369Z,53.06
2019-03-18T14:58:09.485Z,53.28
2019-03-18T15:00:38.637Z,53.43
2019-03-18T15:03:07.756Z,54.24
2019-03-18T15:05:37.163Z,53.14
2019-03-18T15:08:06.795Z,53.11
2019-03-18T15:10:35.912Z,52.16
2019-03-18T15:13:05.058Z,53.51
2019-03-18T15:15:34.213Z,53.68
2019-03-18T15:18:03.353Z,53.80
2019-03-18T15:20:47.661Z,53.78
2019-03-18T15:23:16.748Z,53.66
2019-03-18T15:25:45.888Z,53.48
2019-03-18T15:28:15.006Z,52.37
2019-03-18T15:30:44.138Z,52.79
2019-03-18T15:33:13.390Z,51.66
2019-03-18T15:35:42.570Z,51.67
2019-03-18T15:38:11.768Z,51.58
2019-03-18T15:40:40.941Z,51.41
2019-03-18T15:43:10.066Z,51.09
2019-03-18T15:45:39.240Z,50.85
2019-03-18T15:48:08.390Z,50.36
2019-03-18T15:50:37.565Z,50.78
2019-03-18T15:53:06.718Z,50.20
2019-03-18T15:55:35.888Z,49.76
2019-03-18T15:58:05.011Z,50.08
2019-03-18T16:00:34.163Z,49.51
2019-03-18T16:03:03.331Z,48.48
2019-03-18T16:05:32.469Z,49.29
2019-03-18T16:08:01.731Z,49.64
2019-03-18T16:10:30.862Z,49.78
2019-03-18T16:13:00.026Z,50.79
2019-03-18T16:15:29.157Z,52.34
2019-03-18T16:17:58.348Z,55.13
2019-03-18T16:20:28.378Z,58.34
2019-03-18T16:22:57.728Z,58.18
2019-03-18T16:25:26.979Z,59.23
2019-03-18T16:27:56.159Z,59.70
2019-03-18T16:30:25.406Z,59.59
2019-03-18T16:32:54.603Z,59.49
2019-03-18T16:35:23.882Z,59.94
2019-03-18T16:37:53.010Z,59.64
2019-03-18T16:40:24.518Z,60.03
2019-03-18T16:42:53.649Z,59.80
2019-03-18T16:45:22.813Z,59.57
2019-03-18T16:47:52.007Z,59.70
2019-03-18T16:50:21.164Z,60.40
2019-03-18T16:52:50.342Z,60.61
2019-03-18T16:55:19.507Z,60.73
2019-03-18T16:57:48.684Z,61.52
2019-03-18T17:00:18.885Z,61.83
2019-03-18T17:02:48.073Z,62.08
2019-03-18T17:05:17.261Z,61.91
2019-03-18T17:07:46.433Z,61.88
2019-03-18T17:10:15.741Z,62.59
2019-03-18T17:12:44.994Z,63.10
2019-03-18T17:15:14.252Z,63.60
2019-03-18T17:17:43.431Z,63.65
2019-03-18T17:20:12.831Z,63.91
2019-03-18T17:22:48.950Z,63.73
2019-03-18T17:25:14.856Z,63.65
2019-03-18T17:27:44.090Z,64.03
2019-03-18T17:30:15.505Z,64.50
2019-03-18T17:32:44.690Z,64.83
2019-03-18T17:35:14.760Z,65.38
2019-03-18T17:37:44.050Z,65.56
2019-03-18T17:40:13.738Z,65.87
2019-03-18T17:42:43.142Z,66.26
2019-03-18T17:45:12.831Z,66.28
2019-03-18T17:47:42.014Z,66.52
2019-03-18T17:50:13.642Z,66.73
2019-03-18T17:52:42.908Z,67.30
2019-03-18T17:55:12.100Z,67.93
2019-03-18T17:57:41.278Z,68.18
2019-03-18T18:00:14.045Z,68.34
2019-03-18T18:02:43.255Z,68.71
2019-03-18T18:05:12.445Z,69.23
2019-03-18T18:07:41.707Z,69.53
2019-03-18T18:10:11.111Z,69.82
2019-03-18T18:12:40.310Z,69.76
2019-03-18T18:15:09.859Z,69.82
2019-03-18T18:17:39.292Z,69.89
2019-03-18T18:20:08.897Z,69.98
2019-03-18T18:22:40.978Z,70.16
2019-03-18T18:25:10.452Z,70.28
2019-03-18T18:27:39.863Z,70.31
2019-03-18T18:30:09.228Z,70.48
2019-03-18T18:32:57.955Z,71.18
2019-03-18T18:35:27.119Z,70.87
2019-03-18T18:37:56.279Z,70.83
2019-03-18T18:40:25.425Z,71.05
2019-03-18T18:42:54.725Z,70.92
2019-03-18T18:45:23.866Z,70.95
2019-03-18T18:47:53.125Z,71.19
2019-03-18T18:50:22.298Z,71.51
2019-03-18T18:52:51.464Z,71.23
2019-03-18T18:55:22.342Z,70.86
2019-03-18T18:57:51.485Z,70.50
2019-03-18T19:00:21.809Z,70.26
2019-03-18T19:02:51.204Z,69.89
2019-03-18T19:05:20.430Z,69.08
2019-03-18T19:07:49.809Z,69.06
2019-03-18T19:10:18.981Z,68.35
2019-03-18T19:12:48.216Z,68.00
2019-03-18T19:15:19.371Z,67.88
2019-03-18T19:17:48.503Z,67.96
2019-03-18T19:20:17.727Z,68.16
2019-03-18T19:23:02.491Z,67.91
2019-03-18T19:25:32.767Z,67.69
2019-03-18T19:28:02.421Z,67.51
2019-03-18T19:30:31.617Z,67.91
2019-03-18T19:33:00.813Z,67.33
2019-03-18T19:35:30.059Z,67.08
2019-03-18T19:37:59.251Z,67.02
2019-03-18T19:40:28.617Z,66.95
2019-03-18T19:42:57.839Z,66.93
2019-03-18T19:45:27.211Z,66.60
2019-03-18T19:47:56.558Z,66.86
2019-03-18T19:50:26.076Z,67.04
2019-03-18T19:52:55.281Z,66.93
2019-03-18T19:55:24.546Z,66.43
2019-03-18T19:57:53.827Z,66.87
2019-03-18T20:00:23.356Z,67.00
2019-03-18T20:02:52.970Z,66.77
2019-03-18T20:05:22.363Z,66.78
2019-03-18T20:07:51.828Z,66.72
2019-03-18T20:10:21.361Z,66.82
2019-03-18T20:12:50.889Z,67.00
2019-03-18T20:15:20.441Z,67.24
2019-03-18T20:17:49.764Z,67.13
2019-03-18T20:20:19.076Z,67.43
2019-03-18T20:22:48.766Z,66.78
2019-03-18T20:25:18.712Z,67.66
2019-03-18T20:27:47.962Z,67.53
2019-03-18T20:30:17.504Z,67.36
2019-03-18T20:32:46.748Z,67.10
2019-03-18T20:35:16.152Z,67.46
2019-03-18T20:37:45.303Z,67.35
2019-03-18T20:40:14.739Z,67.12
2019-03-18T20:42:44.319Z,67.11
2019-03-18T20:45:15.080Z,67.17
2019-03-18T20:47:44.438Z,67.12
2019-03-18T20:50:15.233Z,67.04
2019-03-18T20:52:44.386Z,67.03
2019-03-18T20:55:13.842Z,67.50
2019-03-18T20:57:43.023Z,67.63
2019-03-18T21:00:13.255Z,67.87
2019-03-18T21:02:42.713Z,68.18
2019-03-18T21:05:12.126Z,68.24
2019-03-18T21:07:41.780Z,68.53
2019-03-18T21:10:11.135Z,68.80
2019-03-18T21:12:41.491Z,69.25
2019-03-18T21:15:11.822Z,69.23
2019-03-18T21:17:41.035Z,69.46
2019-03-18T21:20:12.481Z,69.84
2019-03-18T21:22:41.661Z,70.07
2019-03-18T21:25:10.998Z,70.29
2019-03-18T21:27:40.212Z,70.25
2019-03-18T21:30:10.373Z,70.49
2019-03-18T21:32:39.559Z,70.44
2019-03-18T21:35:09.111Z,70.40
2019-03-18T21:37:38.401Z,70.67
2019-03-18T21:40:08.337Z,70.82
2019-03-18T21:42:37.537Z,70.97
2019-03-18T21:45:07.051Z,71.01
2019-03-18T21:47:36.210Z,71.10
2019-03-18T21:50:05.973Z,71.22
2019-03-18T21:52:35.178Z,71.42
2019-03-18T21:55:04.409Z,71.47
2019-03-18T21:57:33.593Z,71.63
2019-03-18T22:00:02.912Z,71.58
2019-03-18T22:02:32.081Z,71.70
2019-03-18T22:05:01.283Z,71.87
2019-03-18T22:07:30.428Z,71.88
2019-03-18T22:09:59.599Z,71.86
2019-03-18T22:12:28.752Z,71.96
2019-03-18T22:14:57.885Z,72.01
2019-03-18T22:17:27.028Z,72.01
2019-03-18T22:19:56.213Z,71.98
2019-03-18T22:22:25.548Z,72.02
2019-03-18T22:24:54.721Z,72.19
2019-03-18T22:27:23.883Z,72.27
2019-03-18T22:29:53.007Z,72.33
2019-03-18T22:32:22.180Z,72.47
2019-03-18T22:34:51.291Z,72.75
2019-03-18T22:37:20.506Z,72.83
2019-03-18T22:39:49.644Z,72.87
2019-03-18T22:42:18.907Z,72.90
2019-03-18T22:44:48.020Z,72.85
2019-03-18T22:47:17.179Z,72.90
2019-03-18T22:50:05.262Z,73.15
2019-03-18T22:52:34.428Z,73.08
2019-03-18T22:55:03.578Z,73.62
2019-03-18T22:57:32.741Z,73.43
2019-03-18T23:00:02.025Z,73.26
2019-03-18T23:02:31.195Z,73.77
2019-03-18T23:05:00.378Z,73.28
2019-03-18T23:07:29.478Z,73.01
2019-03-18T23:09:58.619Z,72.95
2019-03-18T23:12:27.787Z,72.92
2019-03-18T23:14:56.917Z,72.94
2019-03-18T23:17:26.081Z,73.04
2019-03-18T23:19:55.195Z,73.29
2019-03-18T23:22:24.299Z,73.45
2019-03-18T23:24:53.456Z,73.53
2019-03-18T23:27:22.563Z,73.51
2019-03-18T23:29:51.715Z,73.67
2019-03-18T23:32:20.840Z,73.92
2019-03-18T23:34:49.957Z,74.16
2019-03-18T23:37:19.078Z,74.31
2019-03-18T23:39:48.264Z,74.53
2019-03-18T23:42:17.452Z,74.52
2019-03-18T23:44:46.605Z,74.46
2019-03-18T23:47:15.875Z,74.34
2019-03-18T23:49:47.415Z,74.28
2019-03-18T23:52:16.055Z,74.49
2019-03-18T23:54:45.184Z,74.76
2019-03-18T23:57:14.322Z,74.86
2019-03-18T23:59:43.441Z,74.73
